createdAt,value
2023-02-05T00:00:11.489Z,74694.63
2023-02-05T00:01:04.079Z,74698.63
2023-02-05T00:01:59.381Z,74692.63
2023-02-05T00:02:51.934Z,74686.63
2023-02-05T00:03:47.148Z,74690.63
2023-02-05T00:04:39.899Z,74684.66
2023-02-05T00:05:35.435Z,74686.63
2023-02-05T00:06:28.237Z,74690.63
2023-02-05T00:07:23.722Z,74692.63
2023-02-05T00:08:16.304Z,74684.66
2023-02-05T00:09:11.491Z,74694.63
2023-02-05T00:10:04.594Z,74684.66
2023-02-05T00:10:59.880Z,74692.63
2023-02-05T00:11:52.498Z,74694.63
2023-02-05T00:12:47.712Z,74698.63
2023-02-05T00:13:41.523Z,74702.63
2023-02-05T00:14:39.385Z,74696.63
2023-02-05T00:15:32.344Z,74698.63
2023-02-05T00:16:28.410Z,74702.63
2023-02-05T00:17:21.006Z,74702.63
2023-02-05T00:18:16.149Z,74702.63
2023-02-05T00:19:08.760Z,74702.63
2023-02-05T00:20:03.912Z,74700.63
2023-02-05T00:20:56.464Z,74704.63
2023-02-05T00:21:51.661Z,74698.63
2023-02-05T00:22:44.265Z,74702.63
2023-02-05T00:23:39.836Z,74698.63
2023-02-05T00:24:32.392Z,74694.63
2023-02-05T00:25:27.548Z,74700.63
2023-02-05T00:26:20.469Z,74690.63
2023-02-05T00:27:16.123Z,74698.63
2023-02-05T00:28:09.007Z,74698.63
2023-02-05T00:29:04.212Z,74708.59
2023-02-05T00:29:59.359Z,74706.59
2023-02-05T00:30:54.711Z,74704.63
2023-02-05T00:31:49.655Z,74706.59
2023-02-05T00:32:44.931Z,74706.59
2023-02-05T00:33:37.955Z,74702.63
2023-02-05T00:34:33.116Z,74710.59
2023-02-05T00:35:25.675Z,74708.59
2023-02-05T00:36:22.081Z,74712.59
2023-02-05T00:37:14.843Z,74710.59
2023-02-05T00:38:10.000Z,74704.63
2023-02-05T00:39:02.730Z,74710.59
2023-02-05T00:39:57.934Z,74710.59
2023-02-05T00:40:50.488Z,74710.59
2023-02-05T00:41:45.672Z,74710.59
2023-02-05T00:42:38.239Z,74710.59
2023-02-05T00:43:33.708Z,74706.59
2023-02-05T00:44:26.388Z,74712.59
2023-02-05T00:45:24.136Z,74710.59
2023-02-05T00:46:16.909Z,74714.59
2023-02-05T00:47:12.113Z,74714.59
2023-02-05T00:48:05.437Z,74716.59
2023-02-05T00:49:01.005Z,74718.59
2023-02-05T00:49:53.565Z,74722.59
2023-02-05T00:50:50.849Z,74718.59
2023-02-05T00:51:43.446Z,74720.59
2023-02-05T00:52:38.676Z,74726.56
2023-02-05T00:53:31.258Z,74718.59
2023-02-05T00:54:26.607Z,74722.59
2023-02-05T00:55:19.226Z,74720.59
2023-02-05T00:56:15.703Z,74716.59
2023-02-05T00:57:08.644Z,74724.59
2023-02-05T00:58:03.902Z,74718.59
2023-02-05T00:58:57.708Z,74716.59
2023-02-05T00:59:53.149Z,74718.59
2023-02-05T01:00:48.355Z,74720.59
2023-02-05T01:01:43.540Z,74712.59
2023-02-05T01:02:36.418Z,74718.59
2023-02-05T01:03:32.648Z,74722.59
2023-02-05T01:04:25.203Z,74714.59
2023-02-05T01:05:20.563Z,74718.59
2023-02-05T01:06:13.173Z,74720.59
2023-02-05T01:07:08.349Z,74714.59
2023-02-05T01:08:00.955Z,74718.59
2023-02-05T01:08:56.512Z,74710.59
2023-02-05T01:09:49.083Z,74718.59
2023-02-05T01:10:46.882Z,74720.59
2023-02-05T01:11:40.059Z,74720.59
2023-02-05T01:12:35.834Z,74714.59
2023-02-05T01:13:28.399Z,74716.59
2023-02-05T01:14:23.591Z,74720.59
2023-02-05T01:15:16.370Z,74718.59
2023-02-05T01:16:14.215Z,74716.59
2023-02-05T01:17:07.063Z,74716.59
2023-02-05T01:18:02.295Z,74718.59
2023-02-05T01:18:56.857Z,74718.59
2023-02-05T01:19:52.048Z,74720.59
2023-02-05T01:20:44.716Z,74724.59
2023-02-05T01:21:39.883Z,74726.56
2023-02-05T01:22:32.523Z,74720.59
2023-02-05T01:23:27.704Z,74724.59
2023-02-05T01:24:20.283Z,74726.56
2023-02-05T01:25:15.462Z,74722.59
2023-02-05T01:26:08.019Z,74726.56
2023-02-05T01:27:03.743Z,74728.56
2023-02-05T01:27:56.425Z,74730.56
2023-02-05T01:28:52.220Z,74734.56
2023-02-05T01:29:44.797Z,74728.56
2023-02-05T01:30:40.134Z,74734.56
2023-02-05T01:31:35.577Z,74734.56
2023-02-05T01:32:31.159Z,74728.56
2023-02-05T01:33:23.724Z,74726.56
2023-02-05T01:34:18.941Z,74738.56
2023-02-05T01:35:11.508Z,74730.56
2023-02-05T01:36:07.157Z,74730.56
2023-02-05T01:36:59.792Z,74738.56
2023-02-05T01:37:55.041Z,74736.56
2023-02-05T01:38:47.603Z,74734.56
2023-02-05T01:39:42.790Z,74732.56
2023-02-05T01:40:35.373Z,74734.56
2023-02-05T01:41:31.906Z,74728.56
2023-02-05T01:42:26.711Z,74732.56
2023-02-05T01:43:22.332Z,74726.56
2023-02-05T01:44:18.618Z,74726.56
2023-02-05T01:45:53.454Z,74732.56
2023-02-05T01:46:51.893Z,74730.56
2023-02-05T01:47:44.492Z,74730.56
2023-02-05T01:48:43.696Z,74722.59
2023-02-05T01:49:39.944Z,74728.56
2023-02-05T01:50:37.465Z,74722.59
2023-02-05T01:51:30.738Z,74722.59
2023-02-05T01:52:25.932Z,74726.56
2023-02-05T01:53:23.867Z,74720.59
2023-02-05T01:54:19.683Z,74726.56
2023-02-05T01:55:12.978Z,74722.59
2023-02-05T01:56:08.681Z,74718.59
2023-02-05T01:57:07.563Z,74714.59
2023-02-05T01:58:00.982Z,74718.59
2023-02-05T01:58:58.972Z,74712.59
2023-02-05T01:59:51.651Z,74716.59
2023-02-05T02:00:46.927Z,74714.59
2023-02-05T02:01:41.105Z,74718.59
2023-02-05T02:02:40.550Z,74726.56
2023-02-05T02:03:33.273Z,74730.56
2023-02-05T02:04:36.896Z,74726.56
2023-02-05T02:05:29.442Z,74722.59
2023-02-05T02:06:24.616Z,74726.56
2023-02-05T02:07:20.700Z,74726.56
2023-02-05T02:08:16.648Z,74730.56
2023-02-05T02:09:09.341Z,74730.56
2023-02-05T02:10:04.649Z,74722.59
2023-02-05T02:10:58.341Z,74726.56
2023-02-05T02:11:53.531Z,74734.56
2023-02-05T02:12:47.613Z,74732.56
2023-02-05T02:13:43.255Z,74732.56
2023-02-05T02:14:36.677Z,74730.56
2023-02-05T02:15:33.641Z,74728.56
2023-02-05T02:16:28.129Z,74724.59
2023-02-05T02:17:23.968Z,74730.56
2023-02-05T02:18:29.327Z,74734.56
2023-02-05T02:19:29.732Z,74728.56
2023-02-05T02:20:23.717Z,74728.56
2023-02-05T02:21:40.965Z,74730.56
2023-02-05T02:22:43.950Z,74728.56
2023-02-05T02:23:43.393Z,74730.56
2023-02-05T02:24:49.636Z,74726.56
2023-02-05T02:26:14.884Z,74732.56
2023-02-05T02:27:51.238Z,74726.56
2023-02-05T02:28:51.479Z,74736.56
2023-02-05T02:29:51.758Z,74728.56
2023-02-05T02:30:46.905Z,74728.56
2023-02-05T02:31:45.044Z,74726.56
2023-02-05T02:32:40.259Z,74726.56
2023-02-05T02:33:38.409Z,74732.56
2023-02-05T02:34:34.316Z,74730.56
2023-02-05T02:35:34.009Z,74732.56
2023-02-05T02:36:31.437Z,74734.56
2023-02-05T02:37:29.005Z,74734.56
2023-02-05T02:38:26.375Z,74734.56
2023-02-05T02:39:24.048Z,74726.56
2023-02-05T02:40:19.272Z,74730.56
2023-02-05T02:41:17.534Z,74726.56
2023-02-05T02:42:14.190Z,74722.59
2023-02-05T02:43:12.284Z,74730.56
2023-02-05T02:44:10.689Z,74726.56
2023-02-05T02:45:08.920Z,74722.59
2023-02-05T02:46:04.893Z,74722.59
2023-02-05T02:47:02.794Z,74726.56
2023-02-05T02:47:57.611Z,74726.56
2023-02-05T02:48:56.159Z,74722.59
2023-02-05T02:49:52.460Z,74726.56
2023-02-05T02:50:50.149Z,74730.56
2023-02-05T02:51:43.417Z,74718.59
2023-02-05T02:52:41.941Z,74714.59
2023-02-05T02:53:37.018Z,74714.59
2023-02-05T02:54:32.303Z,74714.59
2023-02-05T02:55:25.666Z,74710.59
2023-02-05T02:56:22.557Z,74710.59
2023-02-05T02:57:16.559Z,74710.59
2023-02-05T02:58:16.300Z,74706.59
2023-02-05T02:59:13.952Z,74714.59
2023-02-05T03:00:12.068Z,74706.59
2023-02-05T03:01:09.479Z,74712.59
2023-02-05T03:02:04.977Z,74702.63
2023-02-05T03:03:04.461Z,74706.59
2023-02-05T03:03:59.739Z,74704.63
2023-02-05T03:04:58.179Z,74702.63
2023-02-05T03:05:53.557Z,74700.63
2023-02-05T03:06:51.605Z,74694.63
2023-02-05T03:07:47.253Z,74698.63
2023-02-05T03:08:48.440Z,74702.63
2023-02-05T03:09:52.509Z,74702.63
2023-02-05T03:10:53.823Z,74704.63
2023-02-05T03:11:46.446Z,74694.63
2023-02-05T03:12:42.118Z,74688.63
2023-02-05T03:13:35.163Z,74690.63
2023-02-05T03:14:34.549Z,74696.63
2023-02-05T03:15:27.835Z,74690.63
2023-02-05T03:16:24.514Z,74684.66
2023-02-05T03:17:19.867Z,74690.63
2023-02-05T03:18:17.626Z,74688.63
2023-02-05T03:19:10.260Z,74690.63
2023-02-05T03:20:06.728Z,74674.66
2023-02-05T03:21:05.349Z,74680.66
2023-02-05T03:22:00.742Z,74678.66
2023-02-05T03:22:56.236Z,74682.66
2023-02-05T03:23:49.604Z,74682.66
2023-02-05T03:24:44.785Z,74682.66
2023-02-05T03:25:37.604Z,74688.63
2023-02-05T03:26:35.201Z,74686.63
2023-02-05T03:27:47.072Z,74690.63
2023-02-05T03:28:42.370Z,74694.63
2023-02-05T03:29:44.650Z,74694.63
2023-02-05T03:30:55.394Z,74682.66
2023-02-05T03:31:54.877Z,74682.66
2023-02-05T03:32:59.923Z,74680.66
2023-02-05T03:33:58.198Z,74682.66
2023-02-05T03:35:02.740Z,74686.63
2023-02-05T03:35:59.899Z,74688.63
2023-02-05T03:37:02.976Z,74682.66
2023-02-05T03:38:11.753Z,74692.63
2023-02-05T03:39:17.712Z,74684.66
2023-02-05T03:40:15.427Z,74694.63
2023-02-05T03:41:19.146Z,74694.63
2023-02-05T03:42:18.497Z,74696.63
2023-02-05T03:43:16.966Z,74690.63
2023-02-05T03:44:21.736Z,74690.63
2023-02-05T03:45:35.081Z,74690.63
2023-02-05T03:46:33.579Z,74682.66
2023-02-05T03:47:37.811Z,74690.63
2023-02-05T03:48:39.959Z,74690.63
2023-02-05T03:49:43.896Z,74684.66
2023-02-05T03:50:40.306Z,74694.63
2023-02-05T03:51:40.339Z,74694.63
2023-02-05T03:52:41.066Z,74698.63
2023-02-05T03:53:40.024Z,74690.63
2023-02-05T03:54:38.401Z,74690.63
2023-02-05T03:55:41.178Z,74694.63
2023-02-05T03:56:40.176Z,74690.63
2023-02-05T03:57:39.198Z,74694.63
2023-02-05T03:58:35.254Z,74698.63
2023-02-05T03:59:32.146Z,74694.63
2023-02-05T04:00:29.460Z,74700.63
2023-02-05T04:01:25.616Z,74702.63
2023-02-05T04:02:19.028Z,74698.63
2023-02-05T04:03:16.577Z,74694.63
2023-02-05T04:04:09.436Z,74698.63
2023-02-05T04:05:05.507Z,74698.63
2023-02-05T04:05:58.756Z,74696.63
2023-02-05T04:06:55.649Z,74698.63
2023-02-05T04:07:48.381Z,74690.63
2023-02-05T04:08:44.207Z,74690.63
2023-02-05T04:09:37.020Z,74684.66
2023-02-05T04:10:32.890Z,74682.66
2023-02-05T04:11:27.652Z,74686.63
2023-02-05T04:12:23.076Z,74688.63
2023-02-05T04:13:15.820Z,74684.66
2023-02-05T04:14:12.063Z,74682.66
2023-02-05T04:15:09.169Z,74682.66
2023-02-05T04:16:08.926Z,74686.63
2023-02-05T04:17:01.612Z,74692.63
2023-02-05T04:17:58.040Z,74686.63
2023-02-05T04:18:52.879Z,74684.66
2023-02-05T04:19:48.625Z,74678.66
2023-02-05T04:20:43.756Z,74682.66
2023-02-05T04:21:40.004Z,74674.66
2023-02-05T04:22:33.678Z,74676.66
2023-02-05T04:23:28.872Z,74680.66
2023-02-05T04:24:21.544Z,74678.66
2023-02-05T04:25:16.924Z,74682.66
2023-02-05T04:26:10.464Z,74678.66
2023-02-05T04:27:12.463Z,74678.66
2023-02-05T04:28:06.272Z,74676.66
2023-02-05T04:29:01.784Z,74674.66
2023-02-05T04:29:57.263Z,74674.66
2023-02-05T04:30:52.857Z,74678.66
2023-02-05T04:31:48.203Z,74684.66
2023-02-05T04:32:43.465Z,74688.63
2023-02-05T04:33:36.508Z,74678.66
2023-02-05T04:34:31.918Z,74694.63
2023-02-05T04:35:25.864Z,74684.66
2023-02-05T04:36:21.082Z,74682.66
2023-02-05T04:37:14.086Z,74684.66
2023-02-05T04:38:09.303Z,74688.63
2023-02-05T04:39:02.489Z,74682.66
2023-02-05T04:39:58.305Z,74692.63
2023-02-05T04:40:50.913Z,74684.66
2023-02-05T04:41:46.110Z,74690.63
2023-02-05T04:42:38.708Z,74682.66
2023-02-05T04:43:33.874Z,74684.66
2023-02-05T04:44:26.559Z,74690.63
2023-02-05T04:45:22.729Z,74690.63
2023-02-05T04:46:15.321Z,74692.63
2023-02-05T04:47:13.558Z,74686.63
2023-02-05T04:48:06.776Z,74690.63
2023-02-05T04:49:01.980Z,74690.63
2023-02-05T04:49:54.585Z,74684.66
2023-02-05T04:50:49.899Z,74676.66
2023-02-05T04:51:42.456Z,74686.63
2023-02-05T04:52:37.632Z,74686.63
2023-02-05T04:53:30.203Z,74682.66
2023-02-05T04:54:25.336Z,74684.66
2023-02-05T04:55:17.943Z,74680.66
2023-02-05T04:56:14.893Z,74690.63
2023-02-05T04:57:07.480Z,74682.66
2023-02-05T04:58:02.788Z,74682.66
2023-02-05T04:58:55.395Z,74690.63
2023-02-05T04:59:50.589Z,74690.63
2023-02-05T05:00:43.185Z,74694.63
2023-02-05T05:01:38.400Z,74690.63
2023-02-05T05:02:33.596Z,74680.66
2023-02-05T05:03:28.865Z,74690.63
2023-02-05T05:04:21.442Z,74688.63
2023-02-05T05:05:16.613Z,74694.63
2023-02-05T05:06:09.368Z,74690.63
2023-02-05T05:07:04.510Z,74694.63
2023-02-05T05:07:57.095Z,74690.63
2023-02-05T05:08:52.260Z,74684.66
2023-02-05T05:09:44.866Z,74690.63
2023-02-05T05:10:41.497Z,74692.63
2023-02-05T05:11:34.100Z,74696.63
2023-02-05T05:12:29.240Z,74700.63
2023-02-05T05:13:21.837Z,74698.63
2023-02-05T05:14:16.991Z,74694.63
2023-02-05T05:15:10.174Z,74694.63
2023-02-05T05:16:05.792Z,74706.59
2023-02-05T05:16:58.408Z,74706.59
2023-02-05T05:17:56.165Z,74708.59
2023-02-05T05:18:51.697Z,74706.59
2023-02-05T05:19:46.858Z,74706.59
2023-02-05T05:20:41.204Z,74704.63
2023-02-05T05:21:37.608Z,74710.59
2023-02-05T05:22:30.230Z,74708.59
2023-02-05T05:23:25.387Z,74700.63
2023-02-05T05:24:18.010Z,74698.63
2023-02-05T05:25:13.152Z,74700.63
2023-02-05T05:26:06.600Z,74702.63
2023-02-05T05:27:02.395Z,74698.63
2023-02-05T05:27:55.022Z,74698.63
2023-02-05T05:28:50.189Z,74694.63
2023-02-05T05:29:42.980Z,74700.63
2023-02-05T05:30:38.136Z,74702.63
2023-02-05T05:31:31.043Z,74710.59
2023-02-05T05:32:26.275Z,74706.59
2023-02-05T05:33:21.435Z,74698.63
2023-02-05T05:34:16.707Z,74710.59
2023-02-05T05:35:09.397Z,74710.59
2023-02-05T05:36:04.579Z,74706.59
2023-02-05T05:36:57.135Z,74702.63
2023-02-05T05:37:52.353Z,74706.59
2023-02-05T05:38:45.208Z,74702.63
2023-02-05T05:39:52.760Z,74702.63
2023-02-05T05:41:00.316Z,74702.63
2023-02-05T05:42:07.868Z,74706.59
2023-02-05T05:43:15.493Z,74702.63
2023-02-05T05:44:11.404Z,74702.63
2023-02-05T05:45:04.631Z,74706.59
2023-02-05T05:45:59.967Z,74706.59
2023-02-05T05:46:52.533Z,74702.63
2023-02-05T05:47:47.680Z,74698.63
2023-02-05T05:48:43.039Z,74698.63
2023-02-05T05:49:38.396Z,74702.63
2023-02-05T05:50:30.949Z,74698.63
2023-02-05T05:51:31.032Z,74706.59
2023-02-05T05:52:23.600Z,74712.59
2023-02-05T05:53:19.151Z,74710.59
2023-02-05T05:54:11.721Z,74706.59
2023-02-05T05:55:07.267Z,74704.63
2023-02-05T05:55:59.848Z,74710.59
2023-02-05T05:56:55.006Z,74710.59
2023-02-05T05:57:47.557Z,74720.59
2023-02-05T05:58:42.817Z,74714.59
2023-02-05T05:59:35.551Z,74722.59
2023-02-05T06:00:30.829Z,74722.59
2023-02-05T06:01:23.395Z,74720.59
2023-02-05T06:02:18.633Z,74722.59
2023-02-05T06:03:11.815Z,74718.59
2023-02-05T06:04:09.694Z,74718.59
2023-02-05T06:05:02.415Z,74730.56
2023-02-05T06:05:57.614Z,74730.56
2023-02-05T06:06:50.180Z,74736.56
2023-02-05T06:07:45.331Z,74736.56
2023-02-05T06:08:37.974Z,74734.56
2023-02-05T06:09:33.176Z,74734.56
2023-02-05T06:10:25.999Z,74734.56
2023-02-05T06:11:21.140Z,74734.56
2023-02-05T06:12:13.715Z,74738.56
2023-02-05T06:13:08.872Z,74736.56
2023-02-05T06:14:01.650Z,74748.53
2023-02-05T06:14:56.828Z,74742.56
2023-02-05T06:15:49.639Z,74742.56
2023-02-05T06:16:44.889Z,74748.53
2023-02-05T06:17:37.455Z,74742.56
2023-02-05T06:18:32.969Z,74742.56
2023-02-05T06:19:28.262Z,74746.56
2023-02-05T06:20:26.234Z,74750.53
2023-02-05T06:21:18.830Z,74750.53
2023-02-05T06:22:13.996Z,74744.56
2023-02-05T06:23:06.545Z,74750.53
2023-02-05T06:24:01.802Z,74738.56
2023-02-05T06:24:54.381Z,74750.53
2023-02-05T06:25:49.568Z,74742.56
2023-02-05T06:26:42.128Z,74744.56
2023-02-05T06:27:37.371Z,74752.53
2023-02-05T06:28:29.990Z,74750.53
2023-02-05T06:29:25.138Z,74750.53
2023-02-05T06:30:17.895Z,74748.53
2023-02-05T06:31:13.137Z,74742.56
2023-02-05T06:32:05.892Z,74734.56
2023-02-05T06:33:01.103Z,74738.56
2023-02-05T06:33:53.691Z,74734.56
2023-02-05T06:34:51.488Z,74742.56
2023-02-05T06:35:44.097Z,74742.56
2023-02-05T06:36:39.239Z,74750.53
2023-02-05T06:37:46.806Z,74756.53
2023-02-05T06:38:42.644Z,74764.53
2023-02-05T06:39:35.232Z,74762.53
2023-02-05T06:40:30.395Z,74762.53
2023-02-05T06:41:22.957Z,74766.53
2023-02-05T06:42:18.197Z,74770.50
2023-02-05T06:43:10.752Z,74774.50
2023-02-05T06:44:06.155Z,74764.53
2023-02-05T06:44:58.714Z,74770.50
2023-02-05T06:45:53.874Z,74770.50
2023-02-05T06:46:46.484Z,74766.53
2023-02-05T06:47:41.905Z,74770.50
2023-02-05T06:48:34.520Z,74762.53
2023-02-05T06:49:29.886Z,74770.50
2023-02-05T06:50:25.458Z,74762.53
2023-02-05T06:51:20.661Z,74770.50
2023-02-05T06:52:14.136Z,74770.50
2023-02-05T06:53:11.734Z,74770.50
2023-02-05T06:54:04.749Z,74762.53
2023-02-05T06:54:59.899Z,74766.53
2023-02-05T06:55:52.454Z,74770.50
2023-02-05T06:56:47.719Z,74770.50
2023-02-05T06:57:40.272Z,74766.53
2023-02-05T06:58:35.481Z,74776.50
2023-02-05T06:59:28.042Z,74778.50
2023-02-05T07:00:23.613Z,74776.50
2023-02-05T07:01:16.438Z,74774.50
2023-02-05T07:02:13.199Z,74770.50
2023-02-05T07:03:05.902Z,74770.50
2023-02-05T07:04:01.110Z,74766.53
2023-02-05T07:04:53.687Z,74772.50
2023-02-05T07:05:48.850Z,74770.50
2023-02-05T07:06:44.036Z,74774.50
2023-02-05T07:07:36.657Z,74768.50
2023-02-05T07:08:31.822Z,74768.50
2023-02-05T07:09:24.596Z,74766.53
2023-02-05T07:10:20.151Z,74768.50
2023-02-05T07:11:12.712Z,74770.50
2023-02-05T07:12:08.841Z,74768.50
2023-02-05T07:13:01.439Z,74778.50
2023-02-05T07:13:56.592Z,74774.50
2023-02-05T07:14:49.155Z,74770.50
2023-02-05T07:15:44.505Z,74774.50
2023-02-05T07:16:37.108Z,74770.50
2023-02-05T07:17:32.275Z,74770.50
2023-02-05T07:18:24.850Z,74762.53
2023-02-05T07:19:20.160Z,74770.50
2023-02-05T07:20:12.726Z,74764.53
2023-02-05T07:21:11.804Z,74762.53
2023-02-05T07:22:04.456Z,74762.53
2023-02-05T07:23:00.448Z,74768.50
2023-02-05T07:23:53.003Z,74766.53
2023-02-05T07:24:48.216Z,74770.50
2023-02-05T07:25:40.820Z,74762.53
2023-02-05T07:26:36.100Z,74766.53
2023-02-05T07:27:31.363Z,74758.53
2023-02-05T07:28:23.944Z,74758.53
2023-02-05T07:29:19.127Z,74758.53
2023-02-05T07:30:13.332Z,74760.53
2023-02-05T07:31:10.018Z,74760.53
2023-02-05T07:32:02.796Z,74766.53
2023-02-05T07:32:57.958Z,74764.53
2023-02-05T07:33:50.532Z,74762.53
2023-02-05T07:34:45.706Z,74762.53
2023-02-05T07:35:39.398Z,74766.53
2023-02-05T07:36:37.208Z,74764.53
2023-02-05T07:37:29.788Z,74754.53
2023-02-05T07:38:25.083Z,74750.53
2023-02-05T07:39:17.810Z,74754.53
2023-02-05T07:40:14.053Z,74756.53
2023-02-05T07:41:07.595Z,74754.53
2023-02-05T07:42:03.069Z,74746.56
2023-02-05T07:43:03.570Z,74750.53
2023-02-05T07:43:58.753Z,74746.56
2023-02-05T07:44:51.306Z,74746.56
2023-02-05T07:45:46.519Z,74742.56
2023-02-05T07:46:39.197Z,74746.56
2023-02-05T07:47:34.438Z,74746.56
2023-02-05T07:48:27.153Z,74748.53
2023-02-05T07:49:22.380Z,74738.56
2023-02-05T07:50:15.023Z,74746.56
2023-02-05T07:51:10.529Z,74738.56
2023-02-05T07:52:05.964Z,74734.56
2023-02-05T07:53:01.561Z,74732.56
2023-02-05T07:53:54.409Z,74734.56
2023-02-05T07:54:49.575Z,74726.56
2023-02-05T07:55:42.132Z,74734.56
2023-02-05T07:56:37.420Z,74738.56
2023-02-05T07:57:29.963Z,74738.56
2023-02-05T07:58:25.440Z,74738.56
2023-02-05T07:59:18.006Z,74736.56
2023-02-05T08:00:14.562Z,74736.56
2023-02-05T08:01:07.172Z,74730.56
2023-02-05T08:02:02.426Z,74730.56
2023-02-05T08:02:54.966Z,74730.56
2023-02-05T08:03:50.166Z,74730.56
2023-02-05T08:04:42.830Z,74730.56
2023-02-05T08:05:39.496Z,74726.56
2023-02-05T08:06:32.871Z,74722.59
2023-02-05T08:07:30.637Z,74722.59
2023-02-05T08:08:23.241Z,74716.59
2023-02-05T08:09:18.376Z,74722.59
2023-02-05T08:10:13.904Z,74718.59
2023-02-05T08:11:09.976Z,74714.59
2023-02-05T08:12:02.526Z,74718.59
2023-02-05T08:12:57.728Z,74716.59
2023-02-05T08:13:50.283Z,74706.59
2023-02-05T08:14:45.592Z,74710.59
2023-02-05T08:15:39.070Z,74706.59
2023-02-05T08:16:34.342Z,74710.59
2023-02-05T08:17:27.023Z,74706.59
2023-02-05T08:18:22.184Z,74702.63
2023-02-05T08:19:15.604Z,74702.63
2023-02-05T08:20:11.996Z,74698.63
2023-02-05T08:21:05.271Z,74706.59
2023-02-05T08:22:00.497Z,74694.63
2023-02-05T08:22:55.691Z,74698.63
2023-02-05T08:23:51.145Z,74696.63
2023-02-05T08:24:43.712Z,74694.63
2023-02-05T08:25:39.011Z,74694.63
2023-02-05T08:26:31.591Z,74692.63
2023-02-05T08:27:28.696Z,74694.63
2023-02-05T08:28:22.863Z,74698.63
2023-02-05T08:29:18.024Z,74690.63
2023-02-05T08:30:13.757Z,74690.63
2023-02-05T08:31:13.681Z,74698.63
2023-02-05T08:32:06.251Z,74694.63
2023-02-05T08:33:01.412Z,74692.63
2023-02-05T08:33:55.072Z,74690.63
2023-02-05T08:34:50.233Z,74686.63
2023-02-05T08:35:42.863Z,74686.63
2023-02-05T08:36:38.085Z,74688.63
2023-02-05T08:37:30.653Z,74678.66
2023-02-05T08:38:28.411Z,74678.66
2023-02-05T08:39:23.608Z,74676.66
2023-02-05T08:40:16.267Z,74678.66
2023-02-05T08:41:15.276Z,74674.66
2023-02-05T08:42:10.452Z,74674.66
2023-02-05T08:43:03.022Z,74672.66
2023-02-05T08:43:58.199Z,74666.66
2023-02-05T08:44:50.927Z,74668.66
2023-02-05T08:45:49.052Z,74666.66
2023-02-05T08:46:50.103Z,74666.66
2023-02-05T08:47:43.244Z,74662.69
2023-02-05T08:48:38.437Z,74664.66
2023-02-05T08:49:31.045Z,74662.69
2023-02-05T08:50:26.297Z,74658.69
2023-02-05T08:51:19.586Z,74658.69
2023-02-05T08:52:14.780Z,74650.69
2023-02-05T08:53:07.350Z,74646.69
2023-02-05T08:54:05.892Z,74650.69
2023-02-05T08:54:58.712Z,74646.69
2023-02-05T08:55:57.935Z,74648.69
2023-02-05T08:56:51.648Z,74646.69
2023-02-05T08:57:46.912Z,74652.69
2023-02-05T08:58:39.853Z,74650.69
2023-02-05T08:59:35.476Z,74654.69
2023-02-05T09:00:28.537Z,74650.69
2023-02-05T09:01:23.794Z,74646.69
2023-02-05T09:02:16.624Z,74642.72
2023-02-05T09:03:11.912Z,74646.69
2023-02-05T09:04:04.649Z,74642.72
2023-02-05T09:05:08.321Z,74640.72
2023-02-05T09:06:09.482Z,74640.72
2023-02-05T09:07:02.066Z,74638.72
2023-02-05T09:07:59.280Z,74638.72
2023-02-05T09:08:51.843Z,74638.72
2023-02-05T09:09:49.621Z,74636.72
2023-02-05T09:10:44.211Z,74632.72
2023-02-05T09:11:39.728Z,74626.72
2023-02-05T09:12:32.281Z,74634.72
2023-02-05T09:13:27.959Z,74626.72
2023-02-05T09:14:20.545Z,74622.75
2023-02-05T09:15:15.738Z,74614.75
2023-02-05T09:16:11.312Z,74610.75
2023-02-05T09:17:06.688Z,74610.75
2023-02-05T09:17:59.264Z,74610.75
2023-02-05T09:18:54.735Z,74610.75
2023-02-05T09:19:47.325Z,74606.75
2023-02-05T09:20:43.721Z,74610.75
2023-02-05T09:21:36.322Z,74610.75
2023-02-05T09:22:31.669Z,74598.78
2023-02-05T09:23:24.330Z,74600.78
2023-02-05T09:24:19.479Z,74600.78
2023-02-05T09:25:14.649Z,74604.75
2023-02-05T09:26:09.886Z,74594.78
2023-02-05T09:27:02.510Z,74600.78
2023-02-05T09:27:57.769Z,74590.78
2023-02-05T09:28:50.406Z,74590.78
2023-02-05T09:29:45.582Z,74586.78
2023-02-05T09:30:39.344Z,74582.81
2023-02-05T09:31:34.697Z,74582.81
2023-02-05T09:32:27.302Z,74586.78
2023-02-05T09:33:22.527Z,74582.81
2023-02-05T09:34:15.442Z,74582.81
2023-02-05T09:35:11.088Z,74582.81
2023-02-05T09:36:08.035Z,74584.81
2023-02-05T09:37:03.226Z,74582.81
2023-02-05T09:37:55.781Z,74586.78
2023-02-05T09:39:02.007Z,74582.81
2023-02-05T09:40:21.179Z,74574.81
2023-02-05T09:41:26.537Z,74574.81
2023-02-05T09:42:28.886Z,74574.81
2023-02-05T09:43:30.754Z,74566.81
2023-02-05T09:44:39.513Z,74570.81
2023-02-05T09:45:38.477Z,74566.81
2023-02-05T09:46:40.570Z,74566.81
2023-02-05T09:47:35.765Z,74558.84
2023-02-05T09:48:50.100Z,74562.84
2023-02-05T09:49:48.768Z,74558.84
2023-02-05T09:50:42.271Z,74552.84
2023-02-05T09:51:40.007Z,74546.84
2023-02-05T09:52:36.075Z,74544.84
2023-02-05T09:53:37.153Z,74542.88
2023-02-05T09:54:35.091Z,74534.88
2023-02-05T09:55:30.015Z,74524.88
2023-02-05T09:56:28.276Z,74526.88
2023-02-05T09:57:31.414Z,74522.91
2023-02-05T09:58:31.168Z,74514.91
2023-02-05T09:59:25.862Z,74518.91
2023-02-05T10:00:24.380Z,74522.91
2023-02-05T10:01:27.387Z,74510.91
2023-02-05T10:02:24.011Z,74514.91
2023-02-05T10:03:27.540Z,74514.91
2023-02-05T10:04:23.470Z,74518.91
2023-02-05T10:05:17.271Z,74518.91
2023-02-05T10:06:25.874Z,74508.91
2023-02-05T10:07:38.484Z,74486.94
2023-02-05T10:08:37.982Z,74474.97
2023-02-05T10:09:46.221Z,74459.00
2023-02-05T10:10:40.804Z,74451.00
2023-02-05T10:11:43.841Z,74441.03
2023-02-05T10:12:44.551Z,74435.03
2023-02-05T10:13:40.679Z,74419.06
2023-02-05T10:14:44.534Z,74401.09
2023-02-05T10:15:53.871Z,74391.09
2023-02-05T10:17:02.548Z,74375.13
2023-02-05T10:18:07.619Z,74363.16
2023-02-05T10:19:19.163Z,74353.16
2023-02-05T10:20:38.916Z,74343.19
2023-02-05T10:21:52.056Z,74347.19
2023-02-05T10:22:52.583Z,74333.19
2023-02-05T10:24:05.420Z,74327.22
2023-02-05T10:25:33.176Z,74319.22
2023-02-05T10:26:27.527Z,74315.22
2023-02-05T10:27:26.524Z,74311.22
2023-02-05T10:28:29.308Z,74299.25
2023-02-05T10:29:30.582Z,74301.25
2023-02-05T10:30:28.071Z,74291.28
2023-02-05T10:31:27.791Z,74291.28
2023-02-05T10:32:23.079Z,74289.28
2023-02-05T10:33:20.626Z,74283.28
2023-02-05T10:34:18.923Z,74279.28
2023-02-05T10:35:24.475Z,74283.28
2023-02-05T10:36:21.632Z,74279.28
2023-02-05T10:37:20.297Z,74267.31
2023-02-05T10:38:17.083Z,74271.31
2023-02-05T10:39:16.955Z,74261.31
2023-02-05T10:40:15.730Z,74255.31
2023-02-05T10:41:16.911Z,74251.34
2023-02-05T10:42:34.360Z,74247.34
2023-02-05T10:43:32.856Z,74237.34
2023-02-05T10:44:29.589Z,74235.34
2023-02-05T10:45:27.950Z,74243.34
2023-02-05T10:46:20.825Z,74231.38
2023-02-05T10:47:19.344Z,74229.38
2023-02-05T10:48:43.405Z,74233.38
2023-02-05T10:49:43.862Z,74231.38
2023-02-05T10:50:49.906Z,74223.38
2023-02-05T10:51:44.508Z,74221.38
2023-02-05T10:52:39.792Z,74215.41
2023-02-05T10:53:36.345Z,74215.41
2023-02-05T10:54:33.828Z,74209.41
2023-02-05T10:55:26.404Z,74203.41
2023-02-05T10:56:22.463Z,74201.41
2023-02-05T10:57:16.664Z,74197.41
2023-02-05T10:58:29.015Z,74191.44
2023-02-05T10:59:27.827Z,74189.44
2023-02-05T11:00:22.347Z,74185.44